Time;durP1;ratioP1;P1;durP2;ratioP2;P2;SDS_P1;SDS_P2;PMS_P1;PMS_P2;Temp;Humidity;BMP_temperature;BMP_pressure;BME280_temperature;BME280_humidity;BME280_pressure;Samples;Min_cycle;Max_cycle;Signal;HPM_P1;HPM_P2
2020/12/18 00:00:35;;;;;;;552.85;270.88;;;;;;;;;;5082340;28;20701;-49
2020/12/18 00:03:02;;;;;;;554.83;263.42;;;;;;;;;;5078355;28;20077;-50
2020/12/18 00:05:32;;;;;;;554.40;279.85;;;;;;;;;;5076940;28;20024;-50
2020/12/18 00:07:58;;;;;;;508.05;260.67;;;;;;;;;;5072772;28;20024;-53
2020/12/18 00:10:26;;;;;;;417.13;232.35;;;;;;;;;;5076418;28;20052;-51
2020/12/18 00:12:52;;;;;;;528.85;246.07;;;;;;;;;;5088193;28;20116;-52
2020/12/18 00:15:18;;;;;;;656.10;276.20;;;;;;;;;;5090286;28;20028;-51
2020/12/18 00:17:44;;;;;;;623.42;258.33;;;;;;;;;;5091903;28;20090;-52
2020/12/18 00:20:11;;;;;;;541.55;246.00;;;;;;;;;;5089862;28;20028;-51
2020/12/18 00:22:37;;;;;;;519.33;253.27;;;;;;;;;;5091863;28;20578;-50
2020/12/18 00:25:03;;;;;;;534.80;241.93;;;;;;;;;;5090122;28;20032;-51
2020/12/18 00:27:29;;;;;;;461.67;225.10;;;;;;;;;;5091717;28;20020;-50
2020/12/18 00:29:55;;;;;;;595.05;267.33;;;;;;;;;;5088708;28;20491;-53
2020/12/18 00:32:21;;;;;;;380.08;204.95;;;;;;;;;;5090167;28;20039;-50
2020/12/18 00:34:47;;;;;;;401.63;210.30;;;;;;;;;;5091968;28;20059;-52
2020/12/18 00:37:13;;;;;;;544.55;253.77;;;;;;;;;;5089419;28;20058;-53
2020/12/18 00:39:39;;;;;;;471.33;235.38;;;;;;;;;;5092032;28;20157;-50
2020/12/18 00:42:05;;;;;;;367.77;193.20;;;;;;;;;;5089342;28;20360;-50
2020/12/18 00:44:31;;;;;;;368.55;194.20;;;;;;;;;;5090757;28;20020;-52
2020/12/18 00:46:57;;;;;;;444.00;208.70;;;;;;;;;;5091472;28;20028;-50
2020/12/18 00:49:23;;;;;;;369.50;192.98;;;;;;;;;;5090258;28;20042;-49
2020/12/18 00:51:53;;;;;;;416.75;202.52;;;;;;;;;;5090750;28;20024;-49
2020/12/18 00:54:19;;;;;;;426.75;211.75;;;;;;;;;;5074000;28;20056;-51
2020/12/18 00:56:45;;;;;;;423.88;217.02;;;;;;;;;;5075001;28;20384;-51
2020/12/18 00:59:11;;;;;;;347.05;180.32;;;;;;;;;;5073613;28;20025;-53
2020/12/18 01:01:38;;;;;;;358.17;179.90;;;;;;;;;;5076587;28;20090;-51
2020/12/18 01:04:05;;;;;;;423.05;201.15;;;;;;;;;;5071638;28;20435;-54
2020/12/18 01:06:31;;;;;;;519.85;246.20;;;;;;;;;;5071503;28;20027;-50
2020/12/18 01:08:57;;;;;;;497.27;246.65;;;;;;;;;;5072409;28;20013;-50
2020/12/18 01:11:23;;;;;;;536.50;264.33;;;;;;;;;;5077566;28;20511;-50
2020/12/18 01:13:49;;;;;;;453.73;247.50;;;;;;;;;;5075270;28;20029;-50
2020/12/18 01:16:15;;;;;;;420.02;224.18;;;;;;;;;;5086169;28;20036;-51
2020/12/18 01:18:41;;;;;;;384.40;205.68;;;;;;;;;;5093986;28;20020;-49
2020/12/18 01:21:07;;;;;;;318.23;164.23;;;;;;;;;;5091917;28;20118;-49
2020/12/18 01:23:34;;;;;;;327.27;159.98;;;;;;;;;;5093740;28;20024;-49
2020/12/18 01:26:00;;;;;;;286.48;147.05;;;;;;;;;;5094237;28;20446;-50
2020/12/18 01:28:26;;;;;;;304.63;149.07;;;;;;;;;;5094805;28;20035;-53
2020/12/18 01:30:52;;;;;;;343.45;173.88;;;;;;;;;;5094370;28;20018;-50
2020/12/18 01:33:18;;;;;;;367.90;191.88;;;;;;;;;;5093590;28;20028;-49
2020/12/18 01:35:44;;;;;;;326.52;170.13;;;;;;;;;;5090631;28;20056;-54
2020/12/18 01:38:10;;;;;;;301.67;154.07;;;;;;;;;;5094984;28;20039;-54
2020/12/18 01:40:36;;;;;;;288.98;142.85;;;;;;;;;;5095143;28;20016;-50
2020/12/18 01:43:02;;;;;;;282.02;139.63;;;;;;;;;;5094974;28;20020;-51
2020/12/18 01:45:28;;;;;;;249.93;125.28;;;;;;;;;;5095243;28;20020;-51
2020/12/18 01:47:54;;;;;;;295.67;136.07;;;;;;;;;;5090937;28;20065;-52
2020/12/18 01:50:20;;;;;;;283.95;135.48;;;;;;;;;;5088306;28;20032;-52
2020/12/18 01:52:46;;;;;;;285.70;136.48;;;;;;;;;;5093805;28;20052;-50
2020/12/18 01:55:13;;;;;;;369.95;150.60;;;;;;;;;;5094500;28;20067;-50
2020/12/18 01:57:39;;;;;;;354.90;154.43;;;;;;;;;;5093281;28;20055;-53
2020/12/18 02:00:06;;;;;;;265.17;132.23;;;;;;;;;;5093075;28;20099;-54
2020/12/18 02:02:33;;;;;;;356.30;153.05;;;;;;;;;;5091584;28;20070;-53
2020/12/18 02:04:59;;;;;;;274.98;133.63;;;;;;;;;;5092529;28;20020;-50
2020/12/18 02:07:27;;;;;;;242.70;122.32;;;;;;;;;;5092432;28;20531;-53
2020/12/18 02:09:53;;;;;;;252.48;127.22;;;;;;;;;;5093270;28;20020;-50
2020/12/18 02:12:19;;;;;;;276.55;141.02;;;;;;;;;;5093767;28;20028;-53
2020/12/18 02:14:51;;;;;;;438.15;204.85;;;;;;;;;;5091307;28;20054;-51
2020/12/18 02:17:17;;;;;;;;;;;;;;;;;;5093755;28;20092;-51
2020/12/18 02:19:54;;;;;;;506.65;190.77;;;;;;;;;;5092161;28;19916;-50
2020/12/18 02:22:24;;;;;;;393.10;162.48;;;;;;;;;;5092823;28;20070;-50
2020/12/18 02:24:51;;;;;;;362.05;160.50;;;;;;;;;;5093121;28;20028;-49
2020/12/18 02:27:18;;;;;;;508.65;180.98;;;;;;;;;;5093169;28;20028;-51
2020/12/18 02:29:44;;;;;;;402.48;157.52;;;;;;;;;;5091388;28;20028;-50
2020/12/18 02:32:10;;;;;;;276.27;136.27;;;;;;;;;;5086842;28;20054;-49
2020/12/18 02:34:36;;;;;;;278.60;133.23;;;;;;;;;;5085763;28;20031;-52
2020/12/18 02:37:02;;;;;;;272.25;128.80;;;;;;;;;;5092181;28;20119;-51
2020/12/18 02:39:29;;;;;;;330.77;135.90;;;;;;;;;;5093249;28;20036;-50
2020/12/18 02:41:55;;;;;;;235.43;118.80;;;;;;;;;;5093716;28;20048;-52
2020/12/18 02:44:21;;;;;;;299.10;120.07;;;;;;;;;;5093209;28;20024;-50
2020/12/18 02:46:48;;;;;;;242.98;109.13;;;;;;;;;;5093066;28;20035;-50
2020/12/18 02:49:14;;;;;;;241.10;112.97;;;;;;;;;;5093055;28;20054;-52
2020/12/18 02:51:40;;;;;;;301.52;117.10;;;;;;;;;;5093219;28;20035;-49
2020/12/18 02:54:06;;;;;;;207.98;104.93;;;;;;;;;;5092978;28;20131;-50
2020/12/18 02:56:32;;;;;;;259.95;110.53;;;;;;;;;;5093806;28;20095;-50
2020/12/18 02:58:59;;;;;;;211.88;106.50;;;;;;;;;;5093590;28;20024;-50
2020/12/18 03:01:25;;;;;;;215.18;110.70;;;;;;;;;;5084976;28;20503;-51
2020/12/18 03:03:51;;;;;;;412.38;136.65;;;;;;;;;;5085973;28;20479;-54
2020/12/18 03:06:17;;;;;;;319.65;138.07;;;;;;;;;;5092566;28;20031;-52
2020/12/18 03:08:43;;;;;;;547.88;172.90;;;;;;;;;;5092719;28;20024;-50
2020/12/18 03:11:09;;;;;;;379.15;158.68;;;;;;;;;;5093744;28;20031;-51
2020/12/18 03:13:35;;;;;;;354.67;142.05;;;;;;;;;;5075179;28;20039;-54
2020/12/18 03:16:01;;;;;;;715.10;188.02;;;;;;;;;;5093165;28;20383;-52
2020/12/18 03:18:27;;;;;;;726.13;205.73;;;;;;;;;;5092640;28;20051;-51
2020/12/18 03:20:53;;;;;;;606.40;201.43;;;;;;;;;;5092569;28;20463;-55
2020/12/18 03:23:19;;;;;;;618.35;187.77;;;;;;;;;;5092888;28;20034;-50
2020/12/18 03:25:46;;;;;;;736.05;218.73;;;;;;;;;;5093117;28;20028;-54
2020/12/18 03:28:12;;;;;;;541.63;211.02;;;;;;;;;;5092600;28;20063;-50
2020/12/18 03:30:38;;;;;;;387.60;156.48;;;;;;;;;;5092808;28;20028;-55
2020/12/18 03:33:04;;;;;;;344.50;149.20;;;;;;;;;;5083728;28;20094;-51
2020/12/18 03:35:30;;;;;;;266.65;122.97;;;;;;;;;;5091512;28;20016;-52
2020/12/18 03:37:56;;;;;;;213.05;101.25;;;;;;;;;;5084639;28;20112;-50
2020/12/18 03:40:22;;;;;;;216.15;100.85;;;;;;;;;;5087391;28;20031;-54
2020/12/18 03:42:48;;;;;;;283.50;104.68;;;;;;;;;;5092868;28;20422;-54
2020/12/18 03:45:14;;;;;;;287.95;111.45;;;;;;;;;;5092321;28;20040;-51
2020/12/18 03:47:40;;;;;;;255.80;107.88;;;;;;;;;;5092569;28;20400;-51
2020/12/18 03:50:07;;;;;;;203.25;98.07;;;;;;;;;;5092516;28;20028;-54
2020/12/18 03:52:33;;;;;;;215.50;99.10;;;;;;;;;;5092355;28;20495;-50
2020/12/18 03:54:59;;;;;;;213.07;98.95;;;;;;;;;;5092325;28;20077;-54
2020/12/18 03:57:25;;;;;;;353.63;123.90;;;;;;;;;;5092229;28;20039;-51
2020/12/18 03:59:51;;;;;;;398.38;131.68;;;;;;;;;;5090233;28;20353;-53
2020/12/18 04:02:18;;;;;;;328.27;135.93;;;;;;;;;;5088553;28;20032;-51
2020/12/18 04:04:44;;;;;;;464.45;148.90;;;;;;;;;;5074405;28;20074;-50
2020/12/18 04:07:13;;;;;;;441.52;143.10;;;;;;;;;;5071517;28;20039;-51
2020/12/18 04:09:40;;;;;;;539.70;169.38;;;;;;;;;;5073406;28;20012;-51
2020/12/18 04:12:06;;;;;;;424.05;160.27;;;;;;;;;;5079290;28;20117;-49
2020/12/18 04:14:32;;;;;;;489.98;173.45;;;;;;;;;;5071508;28;20016;-50
2020/12/18 04:16:58;;;;;;;397.02;164.85;;;;;;;;;;5070895;28;20046;-50
2020/12/18 04:19:24;;;;;;;412.13;144.60;;;;;;;;;;5071563;28;20020;-51
2020/12/18 04:21:50;;;;;;;280.40;128.88;;;;;;;;;;5076848;28;20028;-52
2020/12/18 04:24:16;;;;;;;462.13;140.07;;;;;;;;;;5092171;28;20063;-50
2020/12/18 04:26:42;;;;;;;256.27;115.38;;;;;;;;;;5091893;28;20464;-50
2020/12/18 04:29:08;;;;;;;369.17;122.65;;;;;;;;;;5091902;28;20032;-50
2020/12/18 04:31:34;;;;;;;230.38;108.82;;;;;;;;;;5089508;28;20111;-51
2020/12/18 04:34:00;;;;;;;199.98;96.30;;;;;;;;;;5092222;28;20024;-51
2020/12/18 04:36:26;;;;;;;169.13;84.53;;;;;;;;;;5080790;28;20045;-51
2020/12/18 04:38:52;;;;;;;164.77;77.18;;;;;;;;;;5091757;28;20035;-54
2020/12/18 04:41:19;;;;;;;166.02;77.47;;;;;;;;;;5091994;28;20467;-50
2020/12/18 04:43:45;;;;;;;174.75;78.00;;;;;;;;;;5092234;28;20513;-54
2020/12/18 04:46:13;;;;;;;158.10;76.88;;;;;;;;;;5087533;28;20032;-53
2020/12/18 04:48:39;;;;;;;195.90;84.75;;;;;;;;;;5074078;28;20025;-51
2020/12/18 04:51:05;;;;;;;192.07;86.13;;;;;;;;;;5075697;28;20475;-50
2020/12/18 04:53:33;;;;;;;156.05;77.30;;;;;;;;;;5084101;28;20075;-51
2020/12/18 04:56:10;;;;;;;194.05;88.45;;;;;;;;;;5076961;28;20051;-50
2020/12/18 04:58:37;;;;;;;206.48;88.10;;;;;;;;;;5081691;28;20016;-52
2020/12/18 05:01:04;;;;;;;227.32;98.72;;;;;;;;;;5077725;28;20024;-50
2020/12/18 05:03:34;;;;;;;218.23;96.90;;;;;;;;;;5082554;28;20138;-50
2020/12/18 05:06:03;;;;;;;218.40;102.68;;;;;;;;;;5085728;28;20044;-50
2020/12/18 05:08:30;;;;;;;215.52;97.93;;;;;;;;;;5078412;28;20063;-50
2020/12/18 05:10:56;;;;;;;227.82;103.63;;;;;;;;;;5078749;28;20047;-50
2020/12/18 05:13:22;;;;;;;255.77;110.70;;;;;;;;;;5086067;28;20020;-54
2020/12/18 05:15:48;;;;;;;227.32;97.63;;;;;;;;;;5075291;28;20503;-50
2020/12/18 05:18:14;;;;;;;216.98;100.05;;;;;;;;;;5071188;28;20028;-53
2020/12/18 05:20:41;;;;;;;281.92;109.45;;;;;;;;;;5080437;28;20112;-54
2020/12/18 05:23:11;;;;;;;197.55;95.18;;;;;;;;;;5074177;28;20082;-50
2020/12/18 05:25:40;;;;;;;209.77;93.22;;;;;;;;;;5074850;28;20028;-53
2020/12/18 05:28:06;;;;;;;198.30;93.50;;;;;;;;;;5074560;28;20027;-50
2020/12/18 05:30:33;;;;;;;193.18;92.93;;;;;;;;;;5074544;28;20032;-51
2020/12/18 05:32:59;;;;;;;306.10;134.05;;;;;;;;;;5074682;28;20017;-50
2020/12/18 05:35:25;;;;;;;219.13;101.20;;;;;;;;;;5074872;28;20432;-50
2020/12/18 05:37:51;;;;;;;190.93;91.88;;;;;;;;;;5074420;28;20060;-50
2020/12/18 05:40:18;;;;;;;222.90;106.97;;;;;;;;;;5082095;28;20591;-53
2020/12/18 05:42:45;;;;;;;246.77;117.38;;;;;;;;;;5080684;28;20078;-51
2020/12/18 05:45:13;;;;;;;248.88;119.38;;;;;;;;;;5077121;28;20372;-54
2020/12/18 05:48:11;;;;;;;228.75;109.63;;;;;;;;;;5080875;28;20082;-50
2020/12/18 05:50:38;;;;;;;215.48;107.18;;;;;;;;;;4972954;28;20537;-51
2020/12/18 05:53:07;;;;;;;192.10;93.85;;;;;;;;;;4978784;28;20048;-54
2020/12/18 05:55:37;;;;;;;181.88;89.82;;;;;;;;;;4992839;28;20103;-51
2020/12/18 05:58:03;;;;;;;190.32;92.45;;;;;;;;;;4991545;28;20486;-54
2020/12/18 06:00:29;;;;;;;180.60;92.28;;;;;;;;;;4992416;28;20406;-52
2020/12/18 06:02:57;;;;;;;179.10;92.10;;;;;;;;;;4992918;28;20058;-54
2020/12/18 06:05:24;;;;;;;174.77;90.13;;;;;;;;;;4991976;28;20031;-51
2020/12/18 06:07:51;;;;;;;186.60;97.63;;;;;;;;;;4992365;28;20124;-54
2020/12/18 06:10:20;;;;;;;175.48;91.20;;;;;;;;;;4992738;28;20097;-54
2020/12/18 06:12:47;;;;;;;174.63;90.20;;;;;;;;;;4992387;28;20692;-54
2020/12/18 06:15:13;;;;;;;163.63;85.53;;;;;;;;;;4992210;28;20053;-54
2020/12/18 06:17:43;;;;;;;206.13;103.95;;;;;;;;;;4990642;28;20031;-53
2020/12/18 06:20:13;;;;;;;187.85;96.28;;;;;;;;;;4992072;28;20061;-50
2020/12/18 06:22:39;;;;;;;183.65;94.97;;;;;;;;;;4992363;28;20418;-53
2020/12/18 06:25:05;;;;;;;183.60;95.15;;;;;;;;;;4996729;28;20029;-54
2020/12/18 06:27:31;;;;;;;190.18;97.63;;;;;;;;;;5093712;28;20016;-54
2020/12/18 06:30:08;;;;;;;192.98;97.28;;;;;;;;;;5093742;28;20028;-53
2020/12/18 06:32:35;;;;;;;187.00;95.68;;;;;;;;;;5093962;28;20497;-50
2020/12/18 06:35:19;;;;;;;193.00;98.90;;;;;;;;;;5074734;28;20423;-50
2020/12/18 06:37:45;;;;;;;187.35;97.78;;;;;;;;;;5093506;28;20085;-53
2020/12/18 06:40:27;;;;;;;203.15;104.72;;;;;;;;;;5093948;28;20030;-52
2020/12/18 06:42:56;;;;;;;214.63;109.05;;;;;;;;;;5093799;28;20027;-54
2020/12/18 06:45:22;;;;;;;223.98;117.65;;;;;;;;;;5093657;28;20028;-54
2020/12/18 06:47:48;;;;;;;268.77;132.88;;;;;;;;;;5093678;28;20055;-52
2020/12/18 06:50:16;;;;;;;289.52;142.77;;;;;;;;;;5093726;28;20025;-51
2020/12/18 06:52:51;;;;;;;257.30;129.15;;;;;;;;;;5092950;28;20119;-54
2020/12/18 06:55:17;;;;;;;208.20;110.57;;;;;;;;;;5093449;28;20039;-49
2020/12/18 06:57:43;;;;;;;212.68;118.20;;;;;;;;;;5093403;28;20044;-51
2020/12/18 07:00:21;;;;;;;201.20;111.68;;;;;;;;;;5093351;28;20020;-50
2020/12/18 07:02:48;;;;;;;187.95;104.63;;;;;;;;;;5093383;28;20028;-50
2020/12/18 07:05:29;;;;;;;159.70;87.10;;;;;;;;;;5093425;28;20020;-51
2020/12/18 07:07:57;;;;;;;141.02;78.75;;;;;;;;;;5093195;28;20024;-50
2020/12/18 07:10:27;;;;;;;130.82;71.20;;;;;;;;;;5093310;28;20029;-51
2020/12/18 07:12:56;;;;;;;126.95;70.80;;;;;;;;;;5093371;28;20020;-51
2020/12/18 07:15:22;;;;;;;118.85;67.40;;;;;;;;;;5093382;28;20027;-54
2020/12/18 07:17:50;;;;;;;116.30;66.53;;;;;;;;;;5093028;28;20051;-51
2020/12/18 07:20:16;;;;;;;133.10;74.07;;;;;;;;;;5092926;28;20020;-51
2020/12/18 07:22:42;;;;;;;159.15;89.50;;;;;;;;;;5092961;28;20028;-51
2020/12/18 07:25:12;;;;;;;151.23;85.30;;;;;;;;;;5074873;28;20472;-51
2020/12/18 07:27:38;;;;;;;146.50;83.50;;;;;;;;;;5092946;28;20040;-51
2020/12/18 07:30:11;;;;;;;152.80;88.10;;;;;;;;;;5092829;28;20024;-53
2020/12/18 07:32:37;;;;;;;200.75;118.75;;;;;;;;;;5092772;28;20097;-54
2020/12/18 07:35:12;;;;;;;178.20;104.80;;;;;;;;;;5092882;28;20024;-51
2020/12/18 07:37:39;;;;;;;174.70;106.20;;;;;;;;;;5092513;28;20039;-51
2020/12/18 07:40:05;;;;;;;153.00;86.95;;;;;;;;;;5092971;28;20024;-51
2020/12/18 07:42:32;;;;;;;174.63;96.90;;;;;;;;;;5092773;28;20035;-51
2020/12/18 07:45:08;;;;;;;173.60;93.90;;;;;;;;;;5092991;28;20049;-50
2020/12/18 07:47:38;;;;;;;180.65;96.70;;;;;;;;;;5092558;28;20020;-54
2020/12/18 07:50:06;;;;;;;188.75;103.60;;;;;;;;;;5092838;28;20019;-51
2020/12/18 07:52:33;;;;;;;197.85;109.25;;;;;;;;;;5092422;28;20483;-54
2020/12/18 07:55:00;;;;;;;201.07;107.65;;;;;;;;;;5092483;28;20538;-51
2020/12/18 07:57:26;;;;;;;206.50;109.78;;;;;;;;;;5092525;28;20040;-51
2020/12/18 08:00:05;;;;;;;204.23;111.50;;;;;;;;;;5092484;28;20043;-54
2020/12/18 08:02:31;;;;;;;204.75;112.20;;;;;;;;;;5092247;28;20024;-50
2020/12/18 08:04:58;;;;;;;205.45;110.57;;;;;;;;;;5092393;28;20027;-52
2020/12/18 08:07:24;;;;;;;204.88;110.13;;;;;;;;;;5092535;28;20030;-52
2020/12/18 08:10:03;;;;;;;194.57;107.38;;;;;;;;;;5092034;28;20383;-52
2020/12/18 08:12:29;;;;;;;211.93;114.32;;;;;;;;;;5092303;28;20027;-51
2020/12/18 08:15:08;;;;;;;212.43;116.82;;;;;;;;;;5091976;28;20480;-51
2020/12/18 08:17:35;;;;;;;219.93;121.75;;;;;;;;;;5092117;28;20040;-51
2020/12/18 08:20:01;;;;;;;310.15;166.25;;;;;;;;;;5092207;28;20107;-54
2020/12/18 08:22:32;;;;;;;252.38;139.05;;;;;;;;;;5091641;28;20032;-51
2020/12/18 08:24:59;;;;;;;306.02;171.27;;;;;;;;;;5092077;28;20016;-51
2020/12/18 08:27:26;;;;;;;278.88;148.43;;;;;;;;;;5086174;28;20029;-51
2020/12/18 08:29:53;;;;;;;241.63;132.75;;;;;;;;;;5072243;28;20021;-51
2020/12/18 08:32:29;;;;;;;273.25;148.50;;;;;;;;;;5071764;28;20423;-52
2020/12/18 08:34:59;;;;;;;255.52;144.73;;;;;;;;;;5072094;28;20456;-51
2020/12/18 08:37:25;;;;;;;276.80;151.98;;;;;;;;;;5071721;28;20480;-52
2020/12/18 08:39:51;;;;;;;262.08;139.93;;;;;;;;;;5072062;28;20111;-51
2020/12/18 08:42:17;;;;;;;253.18;139.52;;;;;;;;;;5071752;28;20074;-54
2020/12/18 08:44:44;;;;;;;259.17;142.55;;;;;;;;;;5071892;28;20025;-53
2020/12/18 08:47:20;;;;;;;262.85;145.25;;;;;;;;;;5071855;28;20179;-51
2020/12/18 08:49:46;;;;;;;250.73;139.07;;;;;;;;;;5071748;28;20021;-51
2020/12/18 08:52:12;;;;;;;243.48;133.73;;;;;;;;;;5071814;28;20028;-52
2020/12/18 08:54:39;;;;;;;245.20;136.27;;;;;;;;;;5090438;28;20201;-51
2020/12/18 08:57:12;;;;;;;239.73;135.90;;;;;;;;;;5091898;28;20036;-54
2020/12/18 08:59:39;;;;;;;265.23;150.13;;;;;;;;;;5091766;28;20020;-51
2020/12/18 09:02:14;;;;;;;264.60;150.98;;;;;;;;;;5091786;28;20100;-51
2020/12/18 09:04:40;;;;;;;273.48;151.35;;;;;;;;;;5091888;28;20035;-54
2020/12/18 09:07:06;;;;;;;260.88;146.20;;;;;;;;;;5091759;28;20025;-52
2020/12/18 09:09:32;;;;;;;273.33;160.98;;;;;;;;;;5091438;28;20360;-52
2020/12/18 09:12:13;;;;;;;266.38;149.75;;;;;;;;;;5091788;28;20456;-51
2020/12/18 09:14:39;;;;;;;280.57;154.70;;;;;;;;;;5091656;28;20106;-55
2020/12/18 09:17:05;;;;;;;284.67;161.65;;;;;;;;;;5091617;28;20039;-55
2020/12/18 09:19:33;;;;;;;303.83;171.80;;;;;;;;;;5091033;28;20020;-54
2020/12/18 09:22:05;;;;;;;317.55;180.75;;;;;;;;;;5091296;28;20484;-56
2020/12/18 09:24:31;;;;;;;306.08;185.73;;;;;;;;;;5091589;28;20039;-55
2020/12/18 09:27:07;;;;;;;288.38;160.00;;;;;;;;;;5091255;28;20309;-55
2020/12/18 09:29:33;;;;;;;269.13;148.60;;;;;;;;;;5091322;28;20037;-54
2020/12/18 09:32:00;;;;;;;265.65;146.52;;;;;;;;;;5091653;28;20023;-54
2020/12/18 09:34:28;;;;;;;261.75;147.52;;;;;;;;;;5095022;28;20499;-52
2020/12/18 09:36:54;;;;;;;274.50;152.30;;;;;;;;;;5094903;28;20044;-52
2020/12/18 09:39:20;;;;;;;252.10;139.35;;;;;;;;;;5094725;28;20020;-51
2020/12/18 09:41:46;;;;;;;187.95;106.03;;;;;;;;;;5095272;28;20028;-55
2020/12/18 09:44:12;;;;;;;155.07;90.35;;;;;;;;;;5094735;28;20035;-55
2020/12/18 09:46:38;;;;;;;159.85;90.63;;;;;;;;;;5094911;28;20028;-55
2020/12/18 09:49:04;;;;;;;159.52;91.97;;;;;;;;;;5094840;28;20077;-54
2020/12/18 09:51:30;;;;;;;161.10;92.20;;;;;;;;;;5094736;28;20039;-53
2020/12/18 09:53:58;;;;;;;174.85;97.03;;;;;;;;;;5094389;28;20048;-52
2020/12/18 09:56:24;;;;;;;164.93;89.75;;;;;;;;;;5094598;28;20479;-52
2020/12/18 09:58:50;;;;;;;160.00;87.22;;;;;;;;;;5094528;28;20032;-53
2020/12/18 10:01:20;;;;;;;147.00;82.80;;;;;;;;;;5094652;28;20031;-52
2020/12/18 10:03:46;;;;;;;167.98;93.53;;;;;;;;;;5094395;28;20036;-52
2020/12/18 10:06:12;;;;;;;149.38;85.05;;;;;;;;;;5094375;28;20021;-54
2020/12/18 10:08:38;;;;;;;133.27;75.63;;;;;;;;;;5094450;28;20027;-54
2020/12/18 10:11:04;;;;;;;143.85;82.25;;;;;;;;;;5094225;28;20027;-52
2020/12/18 10:13:30;;;;;;;149.65;84.38;;;;;;;;;;5094409;28;20035;-55
2020/12/18 10:15:56;;;;;;;192.38;111.53;;;;;;;;;;5094243;28;20052;-52
2020/12/18 10:18:22;;;;;;;191.20;110.85;;;;;;;;;;5083549;28;20040;-51
2020/12/18 10:20:48;;;;;;;161.65;96.65;;;;;;;;;;5073842;28;20025;-52
2020/12/18 10:23:14;;;;;;;148.15;88.90;;;;;;;;;;5073478;28;20031;-55
2020/12/18 10:25:40;;;;;;;138.05;80.85;;;;;;;;;;5075480;28;20480;-52
2020/12/18 10:28:06;;;;;;;143.20;83.65;;;;;;;;;;5079239;28;20032;-53
2020/12/18 10:30:32;;;;;;;117.75;69.18;;;;;;;;;;5067657;28;20078;-53
2020/12/18 10:32:58;;;;;;;121.30;71.47;;;;;;;;;;5056117;28;20039;-50
2020/12/18 10:35:25;;;;;;;115.78;68.95;;;;;;;;;;5055669;28;20621;-53
2020/12/18 10:37:54;;;;;;;115.68;69.43;;;;;;;;;;5053086;28;20554;-55
2020/12/18 10:40:20;;;;;;;129.10;76.13;;;;;;;;;;5052938;28;20472;-50
2020/12/18 10:42:46;;;;;;;147.90;86.05;;;;;;;;;;5052547;28;20033;-54
2020/12/18 10:45:12;;;;;;;146.18;87.28;;;;;;;;;;5051337;28;20148;-50
2020/12/18 10:47:38;;;;;;;149.77;88.13;;;;;;;;;;5054774;28;20040;-51
2020/12/18 10:50:05;;;;;;;138.85;80.72;;;;;;;;;;5052264;28;20024;-54
2020/12/18 10:52:31;;;;;;;131.85;77.57;;;;;;;;;;5055395;28;20036;-51
2020/12/18 10:54:57;;;;;;;127.28;75.38;;;;;;;;;;5054535;28;20120;-54
2020/12/18 10:57:23;;;;;;;119.25;68.82;;;;;;;;;;5079901;28;20125;-50
2020/12/18 10:59:49;;;;;;;120.32;69.47;;;;;;;;;;5091344;28;20020;-52
2020/12/18 11:02:15;;;;;;;122.72;70.50;;;;;;;;;;5091221;28;20020;-53
2020/12/18 11:04:41;;;;;;;100.82;58.97;;;;;;;;;;5090019;28;20017;-55
2020/12/18 11:07:07;;;;;;;96.10;55.38;;;;;;;;;;5091341;28;20024;-52
2020/12/18 11:09:33;;;;;;;100.95;59.00;;;;;;;;;;5089392;28;20044;-52
2020/12/18 11:12:00;;;;;;;95.80;55.42;;;;;;;;;;5091262;28;20020;-55
2020/12/18 11:14:26;;;;;;;88.95;52.33;;;;;;;;;;5089059;28;20027;-54
2020/12/18 11:16:54;;;;;;;89.95;53.58;;;;;;;;;;5088811;28;20094;-51
2020/12/18 11:19:21;;;;;;;83.72;50.10;;;;;;;;;;5091128;28;20020;-53
2020/12/18 11:21:47;;;;;;;94.13;52.28;;;;;;;;;;5090219;28;20016;-52
2020/12/18 11:24:13;;;;;;;93.55;53.10;;;;;;;;;;5091326;28;20032;-52
2020/12/18 11:26:39;;;;;;;98.15;56.42;;;;;;;;;;5078036;28;20067;-52
2020/12/18 11:29:06;;;;;;;103.70;55.75;;;;;;;;;;5067809;28;20029;-54
2020/12/18 11:31:32;;;;;;;102.43;57.08;;;;;;;;;;5059073;28;20020;-52
2020/12/18 11:33:58;;;;;;;86.55;50.72;;;;;;;;;;5074216;28;20488;-53
2020/12/18 11:36:25;;;;;;;89.25;53.17;;;;;;;;;;5072606;28;20036;-52
2020/12/18 11:38:51;;;;;;;89.05;51.35;;;;;;;;;;5071441;28;20028;-55
2020/12/18 11:41:21;;;;;;;75.25;45.13;;;;;;;;;;5072999;28;20028;-52
2020/12/18 11:43:47;;;;;;;75.70;44.83;;;;;;;;;;5072194;28;20115;-52
2020/12/18 11:46:13;;;;;;;80.53;47.13;;;;;;;;;;5078438;28;20032;-52
2020/12/18 11:48:39;;;;;;;83.55;48.15;;;;;;;;;;5084801;28;20146;-51
2020/12/18 11:51:07;;;;;;;90.13;53.67;;;;;;;;;;5071897;28;20031;-52
2020/12/18 11:53:34;;;;;;;100.68;61.35;;;;;;;;;;5073061;28;20378;-52
2020/12/18 11:56:00;;;;;;;117.05;66.18;;;;;;;;;;5071947;28;20476;-54
2020/12/18 11:58:26;;;;;;;97.10;57.63;;;;;;;;;;5077727;28;20655;-54
2020/12/18 12:00:53;;;;;;;105.65;63.00;;;;;;;;;;5073459;28;20016;-55
2020/12/18 12:03:19;;;;;;;122.78;70.15;;;;;;;;;;5054488;28;20033;-51
2020/12/18 12:05:45;;;;;;;123.10;70.22;;;;;;;;;;5050989;28;20021;-52
2020/12/18 12:08:11;;;;;;;126.53;72.65;;;;;;;;;;5053353;28;20447;-51
2020/12/18 12:10:37;;;;;;;143.45;82.00;;;;;;;;;;5059618;28;20390;-53
2020/12/18 12:13:03;;;;;;;178.80;98.75;;;;;;;;;;5053233;28;20465;-52
2020/12/18 12:15:29;;;;;;;242.23;133.55;;;;;;;;;;5054426;28;20052;-51
2020/12/18 12:17:55;;;;;;;180.55;99.78;;;;;;;;;;5051404;28;20495;-52
2020/12/18 12:20:21;;;;;;;164.55;92.35;;;;;;;;;;5051961;28;20067;-52
2020/12/18 12:22:47;;;;;;;213.02;114.65;;;;;;;;;;5072569;28;20498;-52
2020/12/18 12:25:14;;;;;;;280.38;151.45;;;;;;;;;;5074007;28;20554;-51
2020/12/18 12:27:40;;;;;;;263.00;143.73;;;;;;;;;;5076364;28;20031;-54
2020/12/18 12:30:07;;;;;;;170.73;95.25;;;;;;;;;;5059563;28;20416;-53
2020/12/18 12:32:34;;;;;;;182.43;105.85;;;;;;;;;;5052794;28;20451;-51
2020/12/18 12:35:00;;;;;;;155.65;92.45;;;;;;;;;;5050559;28;20496;-52
2020/12/18 12:37:26;;;;;;;172.93;104.60;;;;;;;;;;5059949;28;20045;-53
2020/12/18 12:39:52;;;;;;;171.68;95.55;;;;;;;;;;5054470;28;20092;-55
2020/12/18 12:42:18;;;;;;;168.32;97.35;;;;;;;;;;5052665;28;20451;-51
2020/12/18 12:44:44;;;;;;;156.85;95.63;;;;;;;;;;5055083;28;20021;-56
2020/12/18 12:47:10;;;;;;;241.50;138.77;;;;;;;;;;5051707;28;20036;-52
2020/12/18 12:49:36;;;;;;;168.98;95.85;;;;;;;;;;5051328;28;20412;-55
2020/12/18 12:52:03;;;;;;;159.82;94.32;;;;;;;;;;5072034;28;20047;-52
2020/12/18 12:54:29;;;;;;;147.48;83.68;;;;;;;;;;5088014;28;20036;-52
2020/12/18 12:56:55;;;;;;;142.15;84.25;;;;;;;;;;5089838;28;20165;-50
2020/12/18 12:59:21;;;;;;;137.07;82.05;;;;;;;;;;5070836;28;20016;-52
2020/12/18 13:01:47;;;;;;;143.13;85.25;;;;;;;;;;5073765;28;20034;-51
2020/12/18 13:04:14;;;;;;;123.05;72.78;;;;;;;;;;5071574;28;20021;-54
2020/12/18 13:06:40;;;;;;;128.45;76.43;;;;;;;;;;5090826;28;20024;-55
2020/12/18 13:09:06;;;;;;;165.38;93.30;;;;;;;;;;5094975;28;20024;-54
2020/12/18 13:11:33;;;;;;;210.80;112.25;;;;;;;;;;5095313;28;20081;-52
2020/12/18 13:13:59;;;;;;;169.07;95.68;;;;;;;;;;5095051;28;20022;-52
2020/12/18 13:16:25;;;;;;;139.32;79.03;;;;;;;;;;5093915;28;20040;-53
2020/12/18 13:18:52;;;;;;;138.90;80.78;;;;;;;;;;5094860;28;20044;-52
2020/12/18 13:21:19;;;;;;;185.82;101.60;;;;;;;;;;5094592;28;20052;-53
2020/12/18 13:23:45;;;;;;;176.10;96.97;;;;;;;;;;5094556;28;20051;-52
2020/12/18 13:26:11;;;;;;;222.63;119.85;;;;;;;;;;5094672;28;20106;-52
2020/12/18 13:28:37;;;;;;;171.30;97.13;;;;;;;;;;5095147;28;20074;-52
2020/12/18 13:31:03;;;;;;;151.32;88.25;;;;;;;;;;5094491;28;20030;-53
2020/12/18 13:33:29;;;;;;;135.55;82.22;;;;;;;;;;5094799;28;20413;-53
2020/12/18 13:35:55;;;;;;;152.23;87.60;;;;;;;;;;5094447;28;20510;-52
2020/12/18 13:38:21;;;;;;;127.05;72.40;;;;;;;;;;5094026;28;20490;-54
2020/12/18 13:40:47;;;;;;;141.75;81.00;;;;;;;;;;5094363;28;20044;-55
2020/12/18 13:43:13;;;;;;;168.27;89.43;;;;;;;;;;5095149;28;20028;-53
2020/12/18 13:45:39;;;;;;;162.70;88.65;;;;;;;;;;5094656;28;20036;-51
2020/12/18 13:48:05;;;;;;;150.07;84.88;;;;;;;;;;5094137;28;20024;-52
2020/12/18 13:50:32;;;;;;;133.00;77.25;;;;;;;;;;5094908;28;20081;-52
2020/12/18 13:52:58;;;;;;;142.68;85.93;;;;;;;;;;5089254;28;20492;-52
2020/12/18 13:55:24;;;;;;;128.27;80.03;;;;;;;;;;5074096;28;20036;-55
2020/12/18 13:57:50;;;;;;;128.60;77.00;;;;;;;;;;5075566;28;20035;-52